| time (UTC) | temp F | wind direction | speed MPH | gust MPH | rain 1hr in | rain 24hr in | rain mn in | humidity % | barometer mb |
| 20260509074440 | 50 | 45 | 2.0 | 4.0 | 0.00 | 0.00 | 0.00 | 80 | 991.0 |
| 20260509073438 | 51 | 28 | 2.0 | 4.0 | 0.00 | 0.00 | 0.00 | 79 | 990.9 |
| 20260509072438 | 51 | 38 | 3.0 | 6.0 | 0.00 | 0.00 | 0.00 | 79 | 990.9 |
| 20260509071440 | 51 | 21 | 2.0 | 3.0 | 0.00 | 0.00 | 0.00 | 79 | 990.7 |
| 20260509070439 | 52 | 45 | 1.0 | 2.0 | 0.00 | 0.00 | 0.00 | 79 | 990.3 |
| 20260509065438 | 52 | 45 | 2.0 | 4.0 | 0.00 | 0.00 | 0.00 | 79 | 990.4 |
| 20260509064439 | 53 | 45 | 0.0 | 2.0 | 0.00 | 0.00 | 0.00 | 79 | 990.4 |
| 20260509063439 | 53 | 144 | 0.0 | 2.0 | 0.00 | 0.00 | 0.00 | 79 | 990.3 |
| 20260509062438 | 53 | 182 | 1.0 | 3.0 | 0.00 | 0.00 | 0.00 | 79 | 990.4 |
| 20260509061440 | 53 | 58 | 0.0 | 2.0 | 0.00 | 0.00 | 0.00 | 78 | 990.4 |
| 20260509060439 | 54 | 172 | 1.0 | 4.0 | 0.00 | 0.00 | 0.00 | 78 | 990.4 |
| 20260509055439 | 54 | 52 | 0.0 | 1.0 | 0.00 | 0.00 | 0.00 | 79 | 990.4 |
| 20260509054439 | 54 | 159 | 1.0 | 4.0 | 0.00 | 0.00 | 0.00 | 78 | 990.8 |
| 20260509052441 | 55 | 49 | 4.0 | 8.0 | 0.00 | 0.00 | 0.00 | 78 | 990.5 |
| 20260509050438 | 56 | 49 | 5.0 | 11.0 | 0.00 | 0.00 | 0.00 | 77 | 990.5 |
| 20260509045439 | 56 | 41 | 3.0 | 6.0 | 0.00 | 0.00 | 0.00 | 77 | 990.6 |
| 20260509044440 | 56 | 45 | 3.0 | 4.0 | 0.00 | 0.00 | 0.00 | 77 | 990.6 |
| 20260509043438 | 56 | 71 | 2.0 | 6.0 | 0.00 | 0.00 | 0.00 | 76 | 990.4 |
| 20260509042438 | 57 | 58 | 3.0 | 8.0 | 0.00 | 0.00 | 0.00 | 76 | 990.8 |
| 20260509041439 | 57 | 146 | 2.0 | 4.0 | 0.00 | 0.00 | 0.00 | 76 | 990.8 |
| 20260509040438 | 58 | 26 | 1.0 | 2.0 | 0.00 | 0.00 | 0.00 | 76 | 990.6 |
| 20260509033441 | 59 | 82 | 1.0 | 5.0 | 0.00 | 0.02 | 0.00 | 76 | 990.8 |
| 20260509032441 | 59 | 142 | 1.0 | 2.0 | 0.00 | 0.02 | 0.00 | 75 | 990.7 |
| 20260509031439 | 59 | 129 | 2.0 | 4.0 | 0.00 | 0.02 | 0.00 | 75 | 990.8 |
| 20260509030439 | 59 | 152 | 2.0 | 4.0 | 0.00 | 0.02 | 0.00 | 75 | 990.8 |
| 20260509025438 | 60 | 128 | 1.0 | 4.0 | 0.00 | 0.02 | 0.00 | 75 | 990.7 |
| 20260509024438 | 60 | 62 | 4.0 | 9.0 | 0.00 | 0.02 | 0.00 | 74 | 990.6 |
| 20260509023438 | 60 | 51 | 3.0 | 9.0 | 0.00 | 0.02 | 0.00 | 74 | 990.4 |
| 20260509022440 | 61 | 62 | 4.0 | 8.0 | 0.00 | 0.02 | 0.00 | 74 | 990.3 |
| 20260509021447 | 61 | 45 | 5.0 | 8.0 | 0.00 | 0.02 | 0.00 | 74 | 990.3 |
| 20260509020459 | 61 | 66 | 5.0 | 8.0 | 0.00 | 0.02 | 0.00 | 74 | 990.5 |
| 20260509015439 | 62 | 51 | 6.0 | 9.0 | 0.00 | 0.02 | 0.00 | 74 | 990.5 |
| 20260509014439 | 62 | 43 | 4.0 | 5.0 | 0.00 | 0.02 | 0.00 | 75 | 990.6 |
| 20260509013438 | 62 | 45 | 3.0 | 6.0 | 0.00 | 0.02 | 0.00 | 75 | 990.8 |
| 20260509011441 | 62 | 60 | 2.0 | 3.0 | 0.00 | 0.02 | 0.00 | 77 | 990.8 |
| 20260509010438 | 62 | 79 | 2.0 | 8.0 | 0.00 | 0.02 | 0.00 | 78 | 990.9 |
| 20260509005438 | 61 | 99 | 1.0 | 4.0 | 0.00 | 0.02 | 0.00 | 78 | 991.3 |
| 20260509004443 | 60 | 174 | 0.0 | 2.0 | 0.00 | 0.02 | 0.00 | 78 | 991.1 |
| 20260509003439 | 59 | 202 | 1.0 | 2.0 | 0.00 | 0.02 | 0.00 | 78 | 991.2 |
| 20260509001439 | 59 | 221 | 1.0 | 4.0 | 0.00 | 0.02 | 0.00 | 78 | 991.7 |
| 20260509000443 | 60 | 208 | 1.0 | 2.0 | 0.00 | 0.02 | 0.00 | 78 | 991.7 |
| 20260508235442 | 60 | 270 | 0.0 | 1.0 | 0.00 | 0.02 | 0.00 | 79 | 991.7 |
| 20260508234438 | 59 | 270 | 0.0 | 0.0 | 0.00 | 0.02 | 0.00 | 79 | 991.4 |
| 20260508233439 | 59 | 240 | 0.0 | 0.0 | 0.00 | 0.02 | 0.00 | 80 | 991.6 |
| 20260508230438 | 58 | 184 | 1.0 | 3.0 | 0.00 | 0.02 | 0.00 | 81 | 991.8 |
| 20260508225440 | 58 | 199 | 0.0 | 1.0 | 0.00 | 0.02 | 0.00 | 82 | 991.8 |
| 20260508224439 | 57 | 244 | 1.0 | 2.0 | 0.00 | 0.02 | 0.00 | 82 | 991.8 |
| 20260508223439 | 57 | 204 | 3.0 | 6.0 | 0.00 | 0.02 | 0.00 | 82 | 992.2 |
| 20260508222438 | 56 | 122 | 2.0 | 8.0 | 0.00 | 0.02 | 0.00 | 82 | 992.0 |
| 20260508221440 | 56 | 225 | 2.0 | 5.0 | 0.00 | 0.02 | 0.00 | 82 | 991.8 |
| 20260508220438 | 55 | 216 | 3.0 | 6.0 | 0.00 | 0.02 | 0.00 | 82 | 991.7 |
| 20260508214438 | 56 | 214 | 2.0 | 4.0 | 0.00 | 0.02 | 0.00 | 81 | 991.4 |
| 20260508213438 | 56 | 253 | 1.0 | 3.0 | 0.00 | 0.02 | 0.00 | 81 | 991.0 |
| 20260508212440 | 56 | 236 | 2.0 | 8.0 | 0.00 | 0.02 | 0.00 | 82 | 991.1 |
| 20260508211439 | 56 | 210 | 4.0 | 8.0 | 0.00 | 0.02 | 0.00 | 82 | 991.4 |
| 20260508210439 | 55 | 225 | 2.0 | 4.0 | 0.00 | 0.02 | 0.00 | 81 | 991.6 |
| 20260508205438 | 55 | 178 | 3.0 | 7.0 | 0.00 | 0.02 | 0.00 | 81 | 991.3 |
| 20260508204439 | 55 | 225 | 2.0 | 5.0 | 0.00 | 0.02 | 0.00 | 81 | 991.3 |
| 20260508203438 | 55 | 242 | 2.0 | 6.0 | 0.00 | 0.02 | 0.00 | 81 | 991.1 |
| 20260508202441 | 55 | 249 | 3.0 | 9.0 | 0.00 | 0.02 | 0.00 | 80 | 991.0 |
| 20260508201442 | 55 | 208 | 3.0 | 10.0 | 0.00 | 0.02 | 0.00 | 80 | 990.8 |
| 20260508194439 | 55 | 227 | 2.0 | 5.0 | 0.00 | 0.02 | 0.00 | 78 | 990.4 |
| 20260508192438 | 55 | 223 | 4.0 | 10.0 | 0.00 | 0.02 | 0.00 | 77 | 989.8 |
| 20260508191438 | 55 | 221 | 2.0 | 4.0 | 0.00 | 0.02 | 0.00 | 76 | 989.6 |
| 20260508190438 | 55 | 223 | 4.0 | 8.0 | 0.00 | 0.02 | 0.00 | 75 | 989.3 |
| 20260508185437 | 55 | 229 | 2.0 | 5.0 | 0.00 | 0.02 | 0.00 | 75 | 989.0 |
| 20260508184440 | 55 | 232 | 2.0 | 5.0 | 0.00 | 0.02 | 0.00 | 74 | 988.7 |
| 20260508183440 | 55 | 231 | 4.0 | 7.0 | 0.00 | 0.02 | 0.00 | 72 | 988.5 |
| 20260508182439 | 56 | 227 | 4.0 | 8.0 | 0.00 | 0.02 | 0.00 | 71 | 988.3 |
| 20260508181438 | 56 | 232 | 3.0 | 7.0 | 0.00 | 0.02 | 0.00 | 70 | 988.1 |
| 20260508180439 | 57 | 248 | 4.0 | 6.0 | 0.00 | 0.02 | 0.00 | 69 | 987.8 |
| 20260508175440 | 58 | 225 | 5.0 | 9.0 | 0.00 | 0.02 | 0.00 | 67 | 987.8 |
| 20260508174439 | 58 | 244 | 1.0 | 3.0 | 0.00 | 0.02 | 0.00 | 67 | 987.0 |
| 20260508172438 | 58 | 199 | 1.0 | 2.0 | 0.00 | 0.02 | 0.00 | 67 | 986.3 |
| 20260508171438 | 58 | 184 | 3.0 | 5.0 | 0.00 | 0.02 | 0.00 | 67 | 985.9 |
| 20260508170438 | 58 | 45 | 0.0 | 2.0 | 0.00 | 0.02 | 0.00 | 68 | 985.5 |
| 20260508165438 | 57 | 77 | 2.0 | 6.0 | 0.00 | 0.02 | 0.00 | 67 | 985.5 |
| 20260508164439 | 57 | 49 | 2.0 | 4.0 | 0.00 | 0.02 | 0.00 | 67 | 985.6 |
| 20260508163439 | 58 | 82 | 3.0 | 9.0 | 0.00 | 0.02 | 0.00 | 67 | 985.6 |
| 20260508162438 | 58 | 64 | 0.0 | 3.0 | 0.00 | 0.02 | 0.00 | 67 | 985.5 |
| 20260508160441 | 58 | 60 | 3.0 | 7.0 | 0.00 | 0.02 | 0.00 | 67 | 985.2 |
| 20260508155439 | 58 | 101 | 1.0 | 3.0 | 0.00 | 0.02 | 0.00 | 67 | 985.1 |
| 20260508154440 | 58 | 43 | 7.0 | 16.0 | 0.00 | 0.02 | 0.00 | 66 | 984.7 |
| 20260508152439 | 58 | 184 | 1.0 | 7.0 | 0.00 | 0.02 | 0.00 | 66 | 985.4 |
| 20260508151438 | 59 | 86 | 2.0 | 8.0 | 0.00 | 0.02 | 0.00 | 65 | 985.4 |
| 20260508150439 | 59 | 98 | 3.0 | 5.0 | 0.00 | 0.02 | 0.00 | 65 | 986.1 |
| 20260508145438 | 59 | 105 | 4.0 | 15.0 | 0.00 | 0.02 | 0.00 | 65 | 985.2 |
| 20260508144440 | 60 | 88 | 3.0 | 5.0 | 0.00 | 0.02 | 0.00 | 64 | 985.1 |
| 20260508142438 | 60 | 112 | 5.0 | 11.0 | 0.00 | 0.02 | 0.00 | 64 | 985.7 |
| 20260508141438 | 60 | 75 | 4.0 | 13.0 | 0.00 | 0.02 | 0.00 | 64 | 985.5 |
| 20260508140443 | 60 | 86 | 3.0 | 6.0 | 0.00 | 0.02 | 0.00 | 64 | 985.5 |
| 20260508135437 | 60 | 231 | 4.0 | 9.0 | 0.00 | 0.02 | 0.02 | 65 | 984.6 |
| 20260508134440 | 59 | 105 | 5.0 | 15.0 | 0.00 | 0.02 | 0.02 | 65 | 984.0 |
| 20260508133439 | 60 | 169 | 2.0 | 4.0 | 0.00 | 0.02 | 0.02 | 65 | 985.0 |
| 20260508132439 | 60 | 242 | 2.0 | 5.0 | 0.00 | 0.02 | 0.02 | 65 | 985.3 |
| 20260508131440 | 60 | 135 | 3.0 | 7.0 | 0.00 | 0.02 | 0.02 | 64 | 984.7 |
| 20260508130440 | 61 | 43 | 4.0 | 9.0 | 0.00 | 0.02 | 0.02 | 64 | 984.7 |
| 20260508124438 | 61 | 82 | 4.0 | 18.0 | 0.00 | 0.02 | 0.02 | 65 | 984.9 |
| 20260508122439 | 60 | 81 | 4.0 | 8.0 | 0.00 | 0.02 | 0.02 | 66 | 984.8 |
| 20260508121439 | 60 | 34 | 2.0 | 8.0 | 0.00 | 0.02 | 0.02 | 66 | 984.7 |
| 20260508115440 | 60 | 62 | 3.0 | 5.0 | 0.00 | 0.02 | 0.02 | 67 | 985.3 |
| 20260508114438 | 60 | 178 | 3.0 | 5.0 | 0.00 | 0.02 | 0.02 | 67 | 985.5 |
| 20260508113438 | 60 | 114 | 2.0 | 4.0 | 0.00 | 0.02 | 0.02 | 67 | 985.5 |
| 20260508112439 | 60 | 197 | 3.0 | 5.0 | 0.00 | 0.02 | 0.02 | 66 | 985.7 |
| 20260508105437 | 62 | 66 | 8.0 | 21.0 | 0.00 | 0.02 | 0.02 | 66 | 985.6 |
| 20260508104439 | 62 | 109 | 8.0 | 15.0 | 0.00 | 0.02 | 0.02 | 67 | 985.9 |
| 20260508103438 | 62 | 99 | 7.0 | 12.0 | 0.00 | 0.02 | 0.02 | 68 | 985.9 |
| 20260508101439 | 61 | 69 | 5.0 | 12.0 | 0.00 | 0.02 | 0.02 | 73 | 986.1 |
| 20260508100437 | 60 | 114 | 6.0 | 12.0 | 0.00 | 0.02 | 0.02 | 75 | 986.0 |
| 20260508095438 | 60 | 79 | 9.0 | 23.0 | 0.00 | 0.02 | 0.02 | 76 | 985.9 |
| 20260508094438 | 60 | 86 | 5.0 | 9.0 | 0.00 | 0.02 | 0.02 | 78 | 985.9 |
| 20260508093438 | 59 | 128 | 9.0 | 16.0 | 0.00 | 0.02 | 0.02 | 80 | 986.3 |
| 20260508092440 | 59 | 107 | 6.0 | 12.0 | 0.00 | 0.02 | 0.02 | 80 | 986.3 |
| 20260508091439 | 59 | 79 | 5.0 | 9.0 | 0.00 | 0.02 | 0.02 | 80 | 986.7 |
| 20260508090439 | 59 | 75 | 6.0 | 11.0 | 0.00 | 0.02 | 0.02 | 80 | 986.8 |
| 20260508085439 | 59 | 73 | 5.0 | 7.0 | 0.00 | 0.02 | 0.02 | 79 | 987.1 |
| 20260508084438 | 59 | 71 | 6.0 | 12.0 | 0.00 | 0.02 | 0.02 | 79 | 987.3 |
| 20260508082439 | 59 | 54 | 8.0 | 13.0 | 0.00 | 0.02 | 0.02 | 79 | 987.2 |
| 20260508081439 | 60 | 191 | 6.0 | 13.0 | 0.00 | 0.02 | 0.02 | 78 | 987.3 |
| 20260508080441 | 60 | 58 | 6.0 | 12.0 | 0.00 | 0.02 | 0.02 | 78 | 987.4 |